地図

経路データ

SID SEASON NUMBER BASIN SUBBASIN NAME ISO_TIME NATURE LAT LON WMO_WIND WMO_PRES WMO_AGENCY TRACK_TYPE DIST2LAND LANDFALL IFLAG USA_AGENCY USA_ATCF_ID USA_LAT USA_LON USA_RECORD USA_STATUS USA_WIND USA_PRES USA_SSHS USA_R34_NE USA_R34_SE USA_R34_SW USA_R34_NW USA_R50_NE USA_R50_SE USA_R50_SW USA_R50_NW USA_R64_NE USA_R64_SE USA_R64_SW USA_R64_NW USA_POCI USA_ROCI USA_RMW USA_EYE TOKYO_LAT TOKYO_LON TOKYO_GRADE TOKYO_WIND TOKYO_PRES TOKYO_R50_DIR TOKYO_R50_LONG TOKYO_R50_SHORT TOKYO_R30_DIR TOKYO_R30_LONG TOKYO_R30_SHORT TOKYO_LAND CMA_LAT CMA_LON CMA_CAT CMA_WIND CMA_PRES HKO_LAT HKO_LON HKO_CAT HKO_WIND HKO_PRES NEWDELHI_LAT NEWDELHI_LON NEWDELHI_GRADE NEWDELHI_WIND NEWDELHI_PRES NEWDELHI_CI NEWDELHI_DP NEWDELHI_POCI REUNION_LAT REUNION_LON REUNION_TYPE REUNION_WIND REUNION_PRES REUNION_TNUM REUNION_CI REUNION_RMW REUNION_R34_NE REUNION_R34_SE REUNION_R34_SW REUNION_R34_NW REUNION_R50_NE REUNION_R50_SE REUNION_R50_SW REUNION_R50_NW REUNION_R64_NE REUNION_R64_SE REUNION_R64_SW REUNION_R64_NW BOM_LAT BOM_LON BOM_TYPE BOM_WIND BOM_PRES BOM_TNUM BOM_CI BOM_RMW BOM_R34_NE BOM_R34_SE BOM_R34_SW BOM_R34_NW BOM_R50_NE BOM_R50_SE BOM_R50_SW BOM_R50_NW BOM_R64_NE BOM_R64_SE BOM_R64_SW BOM_R64_NW BOM_ROCI BOM_POCI BOM_EYE BOM_POS_METHOD BOM_PRES_METHOD NADI_LAT NADI_LON NADI_CAT NADI_WIND NADI_PRES WELLINGTON_LAT WELLINGTON_LON WELLINGTON_WIND WELLINGTON_PRES DS824_LAT DS824_LON DS824_STAGE DS824_WIND DS824_PRES TD9636_LAT TD9636_LON TD9636_STAGE TD9636_WIND TD9636_PRES TD9635_LAT TD9635_LON TD9635_WIND TD9635_PRES TD9635_ROCI NEUMANN_LAT NEUMANN_LON NEUMANN_CLASS NEUMANN_WIND NEUMANN_PRES MLC_LAT MLC_LON MLC_CLASS MLC_WIND MLC_PRES USA_GUST BOM_GUST BOM_GUST_PER REUNION_GUST REUNION_GUST_PER USA_SEAHGT USA_SEARAD_NE USA_SEARAD_SE USA_SEARAD_SW USA_SEARAD_NW STORM_SPEED STORM_DIR
2020150N09269 2020 29 EP MM AMANDA:CRISTOBAL 2020-05-28 18:00:00 NR 9.00000 -91.5000 PROVISIONAL 537 516 O_____________ nhc_working_bt EP022020 9.00000 -91.5000 DB 15 -3 1010 300 200 5 358
2020150N09269 2020 29 EP MM AMANDA:CRISTOBAL 2020-05-28 21:00:00 NR 9.25000 -91.5025 PROVISIONAL 505 484 P_____________ EP022020 9.25000 -91.5025 DB 15 -3 1010 300 160 5 2
2020150N09269 2020 29 EP MM AMANDA:CRISTOBAL 2020-05-29 00:00:00 NR 9.50000 -91.5000 PROVISIONAL 484 464 O_____________ nhc_working_bt EP022020 9.50000 -91.5000 DB 15 -3 1010 300 120 5 2
2020150N09269 2020 29 EP MM AMANDA:CRISTOBAL 2020-05-29 03:00:00 NR 9.75000 -91.4925 PROVISIONAL 453 433 P_____________ EP022020 9.75000 -91.4925 DB 15 -3 1010 300 120 5 2
2020150N09269 2020 29 EP MM AMANDA:CRISTOBAL 2020-05-29 06:00:00 NR 10.0000 -91.5000 PROVISIONAL 433 413 O_____________ nhc_working_bt EP022020 10.0000 -91.5000 DB 15 -3 1010 300 120 5 353
2020150N09269 2020 29 EP MM AMANDA:CRISTOBAL 2020-05-29 09:00:00 NR 10.2500 -91.5425 PROVISIONAL 403 382 P_____________ EP022020 10.2500 -91.5425 DB 17 -3 1010 300 120 5 349
2020150N09269 2020 29 EP MM AMANDA:CRISTOBAL 2020-05-29 12:00:00 NR 10.5000 -91.6000 PROVISIONAL 382 359 O_____________ nhc_working_bt EP022020 10.5000 -91.6000 DB 20 -3 1010 300 120 5 347
2020150N09269 2020 29 EP MM AMANDA:CRISTOBAL 2020-05-29 15:00:00 NR 10.7575 -91.6575 PROVISIONAL 349 327 P_____________ EP022020 10.7575 -91.6575 DB 22 -3 1010 300 120 5 349
2020150N09269 2020 29 EP MM AMANDA:CRISTOBAL 2020-05-29 18:00:00 NR 11.0000 -91.7000 PROVISIONAL 327 305 O_____________ nhc_working_bt EP022020 11.0000 -91.7000 DB 25 1008 -3 1010 300 120 5 351
2020150N09269 2020 29 EP MM AMANDA:CRISTOBAL 2020-05-29 21:00:00 NR 11.2150 -91.7225 PROVISIONAL 305 283 P_____________ EP022020 11.2150 -91.7225 DB 25 1007 -3 1010 300 120 4 0
2020150N09269 2020 29 EP MM AMANDA:CRISTOBAL 2020-05-30 00:00:00 NR 11.4000 -91.7000 PROVISIONAL 283 259 O_____________ nhc_working_bt EP022020 11.4000 -91.7000 DB 25 1007 -3 1010 300 120 35 4 16
2020150N09269 2020 29 EP MM AMANDA:CRISTOBAL 2020-05-30 03:00:00 NR 11.5650 -91.6150 PROVISIONAL 259 247 P_____________ EP022020 11.5650 -91.6150 DB 25 1006 -3 1010 300 120 4 33
2020150N09269 2020 29 EP MM AMANDA:CRISTOBAL 2020-05-30 06:00:00 NR 11.7000 -91.5000 PROVISIONAL 247 235 O_____________ nhc_working_bt EP022020 11.7000 -91.5000 DB 25 1006 -3 1010 300 120 3 41
2020150N09269 2020 29 EP MM AMANDA:CRISTOBAL 2020-05-30 09:00:00 NR 11.8075 -91.4000 PROVISIONAL 235 223 P_____________ EP022020 11.8075 -91.4000 DB 25 1006 -3 1010 300 110 3 44
2020150N09269 2020 29 EP MM AMANDA:CRISTOBAL 2020-05-30 12:00:00 DS 11.9000 -91.3000 PROVISIONAL 223 212 O_____________ nhc_working_bt EP022020 11.9000 -91.3000 LO 25 1006 -3 1010 300 100 2 50
2020150N09269 2020 29 EP MM AMANDA:CRISTOBAL 2020-05-30 15:00:00 DS 11.9700 -91.2074 PROVISIONAL 212 201 P_____________ EP022020 11.9700 -91.2074 LO 25 1006 -3 1010 300 90 3 44
2020150N09269 2020 29 EP MM AMANDA:CRISTOBAL 2020-05-30 18:00:00 TS 12.1000 -91.1000 PROVISIONAL 201 167 O_____________ nhc_working_bt EP022020 12.1000 -91.1000 TD 25 1006 -1 1010 300 80 35 5 31
2020150N09269 2020 29 EP MM AMANDA:CRISTOBAL 2020-05-30 21:00:00 TS 12.3888 -90.9551 PROVISIONAL 167 134 P_____________ EP022020 12.3700 -90.9575 TD 27 1005 -1 1009 285 70 7 25
2020150N09269 2020 29 EP MM AMANDA:CRISTOBAL 2020-05-31 00:00:00 TS 12.7000 -90.8091 PROVISIONAL 134 100 O_____________ nhc_working_bt EP022020 12.7000 -90.8000 TD 30 1005 -1 1009 270 60 35 7 27
2020150N09269 2020 29 EP MM AMANDA:CRISTOBAL 2020-05-31 03:00:00 TS 12.9775 -90.6478 PROVISIONAL 99 64 P_____________ EP022020 12.9775 -90.6425 TD 32 1004 -1 1009 270 50 7 27
2020150N09269 2020 29 EP MM AMANDA:CRISTOBAL 2020-05-31 06:00:00 TS 13.3000 -90.5000 PROVISIONAL 64 22 O_____________ nhc_working_bt EP022020 13.3000 -90.5000 TS 35 1003 0 30 40 1009 270 40 40 8 19
2020150N09269 2020 29 EP MM AMANDA:CRISTOBAL 2020-05-31 09:00:00 TS 13.7050 -90.3905 PROVISIONAL 22 0 P_____________ EP022020 13.7050 -90.3924 TS 35 1003 0 30 40 1009 255 35 9 12
2020150N09269 2020 29 EP MM AMANDA:CRISTOBAL 2020-05-31 12:00:00 TS 14.2000 -90.3000 PROVISIONAL 0 0 O_____________ nhc_working_bt EP022020 14.2000 -90.3000 TS 35 1003 0 30 40 1009 240 30 45 12 30 40 11 10
2020150N09269 2020 29 EP MM AMANDA:CRISTOBAL 2020-05-31 15:00:00 TS 14.7805 -90.1996 PROVISIONAL 0 0 P_____________ EP022020 14.7850 -90.1926 TS 30 1005 -1 1009 210 30 12 9
2020150N09269 2020 29 EP MM AMANDA:CRISTOBAL 2020-05-31 18:00:00 DS 15.4000 -90.1000 PROVISIONAL 0 0 O_____________ nhc_working_bt EP022020 15.4000 -90.1000 DB 25 1007 -3 1009 180 30 35 12 8
2020150N09269 2020 29 EP MM AMANDA:CRISTOBAL 2020-05-31 21:00:00 DS 15.9500 -90.0350 PROVISIONAL 0 0 P_____________ EP022020 15.9500 -90.0350 DB 22 1007 -3 1009 225 55 11 5
2020150N09269 2020 29 EP MM AMANDA:CRISTOBAL 2020-06-01 00:00:00 DS 16.5000 -90.0000 PROVISIONAL 0 0 O_____________ nhc_working_bt AL032020 16.5000 -90.0000 LO 20 1007 -3 1010 270 80 12 3
2020150N09269 2020 29 EP MM AMANDA:CRISTOBAL 2020-06-01 03:00:00 DS 17.0925 -89.9702 PROVISIONAL 0 0 P_____________ AL032020 17.0925 -89.9702 LO 22 1006 -3 1010 210 80 12 1
2020150N09269 2020 29 EP MM AMANDA:CRISTOBAL 2020-06-01 06:00:00 DS 17.7000 -90.0000 PROVISIONAL 0 0 O_____________ nhc_working_bt AL032020 17.7000 -90.0000 LO 25 1006 -3 1010 150 80 35 13 354
2020150N09269 2020 29 EP MM AMANDA:CRISTOBAL 2020-06-01 09:00:00 DS 18.3449 -90.1049 PROVISIONAL 0 0 P_____________ AL032020 18.3449 -90.1049 LO 25 1006 -3 1010 150 80 12 347
2020150N09269 2020 29 EP MM AMANDA:CRISTOBAL 2020-06-01 12:00:00 DS 18.9000 -90.3000 PROVISIONAL 0 0 O_____________ nhc_working_bt AL032020 18.9000 -90.3000 LO 25 1006 -3 1010 150 80 35 10 335
2020150N09269 2020 29 EP MM AMANDA:CRISTOBAL 2020-06-01 15:00:00 DS 19.2825 -90.5699 PROVISIONAL 0 0 P_____________ AL032020 19.2825 -90.5699 LO 25 1005 -3 1010 165 80 8 317
2020150N09269 2020 29 NA GM AMANDA:CRISTOBAL 2020-06-01 18:00:00 TS 19.5000 -90.9000 PROVISIONAL 20 20 O_____________ nhc_working_bt AL032020 19.5000 -90.9000 TD 25 1005 -1 1010 180 80 35 8 293
2020150N09269 2020 29 NA GM AMANDA:CRISTOBAL 2020-06-01 21:00:00 TS 19.5777 -91.3050 PROVISIONAL 54 54 P_____________ AL032020 19.5950 -91.2577 TD 25 1005 -1 1009 180 80 7 278
2020150N09269 2020 29 NA GM AMANDA:CRISTOBAL 2020-06-02 00:00:00 TS 19.6000 -91.6600 PROVISIONAL 79 79 O_____________ nhc_working_bt AL032020 19.6000 -91.6000 TD 25 1005 -1 1009 180 80 35 5 273
2020150N09269 2020 29 NA GM AMANDA:CRISTOBAL 2020-06-02 03:00:00 TS 19.6099 -91.8775 PROVISIONAL 88 88 P_____________ AL032020 19.6149 -91.8725 TD 27 1005 -1 1009 180 75 4 270
2020150N09269 2020 29 NA GM AMANDA:CRISTOBAL 2020-06-02 06:00:00 TS 19.6000 -92.0333 PROVISIONAL 94 94 O_____________ nhc_working_bt AL032020 19.6000 -92.1000 TD 30 1005 -1 1009 180 70 40 3 270
2020150N09269 2020 29 NA GM AMANDA:CRISTOBAL 2020-06-02 09:00:00 TS 19.6108 -92.2408 PROVISIONAL 107 107 P_____________ AL032020 19.5725 -92.3225 TD 32 1004 -1 1009 180 65 4 265
2020150N09269 2020 29 NA GM AMANDA:CRISTOBAL 2020-06-02 12:00:00 TS 19.5667 -92.4333 PROVISIONAL 111 89 O_____________ nhc_working_bt AL032020 19.5000 -92.5000 TS 35 1004 0 60 60 1009 180 60 40 4 238
2020150N09269 2020 29 NA GM AMANDA:CRISTOBAL 2020-06-02 15:00:00 TS 19.3808 -92.6268 PROVISIONAL 89 67 P_____________ AL032020 19.3425 -92.6601 TS 37 1002 0 60 60 1009 180 50 4 214
2020150N09269 2020 29 NA GM AMANDA:CRISTOBAL 2020-06-02 18:00:00 TS 19.2000 -92.7000 PROVISIONAL 67 67 O_____________ nhc_working_bt AL032020 19.2000 -92.7000 TS 40 1001 0 60 60 1009 180 40 45 2 155
2020150N09269 2020 29 NA GM AMANDA:CRISTOBAL 2020-06-02 21:00:00 TS 19.1876 -92.5350 PROVISIONAL 67 67 P_____________ AL032020 19.1926 -92.5300 TS 42 999 0 60 60 1008 180 35 4 90
2020150N09269 2020 29 NA GM AMANDA:CRISTOBAL 2020-06-03 00:00:00 TS 19.2000 -92.3000 PROVISIONAL 67 55 O_____________ nhc_working_bt AL032020 19.2000 -92.3000 TS 45 997 0 60 60 60 40 1007 180 30 50 4 102
2020150N09269 2020 29 NA GM AMANDA:CRISTOBAL 2020-06-03 03:00:00 TS 19.1150 -92.1700 PROVISIONAL 55 44 P_____________ AL032020 19.1150 -92.1700 TS 47 995 0 55 50 50 45 1007 180 25 3 136
2020150N09269 2020 29 NA GM AMANDA:CRISTOBAL 2020-06-03 06:00:00 TS 19.0000 -92.1000 PROVISIONAL 44 33 O_____________ nhc_working_bt AL032020 19.0000 -92.1000 TS 50 994 0 50 40 40 50 20 20 1007 180 20 60 2 160
2020150N09269 2020 29 NA GM AMANDA:CRISTOBAL 2020-06-03 09:00:00 TS 18.9150 -92.1001 PROVISIONAL 33 22 P_____________ AL032020 18.9150 -92.1001 TS 50 994 0 50 40 40 50 1007 180 20 2 172
2020150N09269 2020 29 NA GM AMANDA:CRISTOBAL 2020-06-03 12:00:00 TS 18.8000 -92.1000 PROVISIONAL 22 0 O_____________ nhc_working_bt AL032020 18.8000 -92.1000 TS 50 994 0 50 40 40 50 20 1007 180 20 60 12 75 3 165
2020150N09269 2020 29 NA GM AMANDA:CRISTOBAL 2020-06-03 15:00:00 TS 18.5925 -92.0074 PROVISIONAL 0 0 P_____________ AL032020 18.5925 -92.0074 TS 47 994 0 50 40 40 50 1007 180 20 12 75 4 155
2020150N09269 2020 29 NA NA AMANDA:CRISTOBAL 2020-06-03 18:00:00 TS 18.4000 -91.9000 PROVISIONAL 0 0 O_____________ nhc_working_bt AL032020 18.4000 -91.9000 TS 45 995 0 50 40 40 50 1007 180 20 55 12 30 75 3 150
2020150N09269 2020 29 NA NA AMANDA:CRISTOBAL 2020-06-03 21:00:00 TS 18.3425 -91.8576 PROVISIONAL 0 0 P_____________ AL032020 18.3425 -91.8576 TS 42 995 0 50 30 30 50 1007 190 20 12 75 1 137
2020150N09269 2020 29 NA NA AMANDA:CRISTOBAL 2020-06-04 00:00:00 TS 18.3000 -91.8000 PROVISIONAL 0 0 O_____________ nhc_working_bt AL032020 18.3000 -91.8000 TS 40 995 0 50 20 20 50 1007 200 20 50 12 75 3 134
2020150N09269 2020 29 NA NA AMANDA:CRISTOBAL 2020-06-04 03:00:00 TS 18.1700 -91.6650 PROVISIONAL 0 0 P_____________ AL032020 18.1650 -91.6650 TS 37 996 0 35 20 20 50 1007 200 20 4 137
2020150N09269 2020 29 NA NA AMANDA:CRISTOBAL 2020-06-04 06:00:00 TS 18.0000 -91.5000 PROVISIONAL 0 0 O_____________ nhc_working_bt AL032020 18.0000 -91.5000 TS 35 997 0 20 20 20 50 1007 200 20 45 5 141
2020150N09269 2020 29 NA NA AMANDA:CRISTOBAL 2020-06-04 09:00:00 TS 17.7967 -91.3500 PROVISIONAL 0 0 P_____________ AL032020 17.8350 -91.3500 TS 32 997 -1 1006 200 20 5 142
2020150N09269 2020 29 NA NA AMANDA:CRISTOBAL 2020-06-04 12:00:00 TS 17.6333 -91.2000 PROVISIONAL 0 0 O_____________ nhc_working_bt AL032020 17.7000 -91.2000 TD 30 998 -1 1006 200 20 40 4 127
2020150N09269 2020 29 NA NA AMANDA:CRISTOBAL 2020-06-04 15:00:00 TS 17.5816 -91.0575 PROVISIONAL 0 0 P_____________ AL032020 17.6200 -91.0575 TD 30 998 -1 1006 200 30 3 97
2020150N09269 2020 29 NA NA AMANDA:CRISTOBAL 2020-06-04 18:00:00 TS 17.6000 -90.9000 PROVISIONAL 0 0 O_____________ nhc_working_bt AL032020 17.6000 -90.9000 TD 30 999 -1 1006 200 40 40 3 87
2020150N09269 2020 29 NA NA AMANDA:CRISTOBAL 2020-06-04 21:00:00 TS 17.5975 -90.6999 PROVISIONAL 0 0 P_____________ AL032020 17.5825 -90.6999 TD 30 999 -1 1006 200 95 4 75
2020150N09269 2020 29 NA NA AMANDA:CRISTOBAL 2020-06-05 00:00:00 TS 17.7000 -90.5000 PROVISIONAL 0 0 O_____________ nhc_working_bt AL032020 17.7000 -90.5000 TD 30 1000 -1 1006 200 150 40 5 44
2020150N09269 2020 29 NA NA AMANDA:CRISTOBAL 2020-06-05 03:00:00 TS 17.9533 -90.3375 PROVISIONAL 0 0 P_____________ AL032020 18.0250 -90.3425 TD 30 1000 -1 1006 200 150 7 23
2020150N09269 2020 29 NA NA AMANDA:CRISTOBAL 2020-06-05 06:00:00 TS 18.3667 -90.2000 PROVISIONAL 0 0 O_____________ nhc_working_bt AL032020 18.5000 -90.2000 TD 30 1000 -1 1007 200 150 40 10 14
2020150N09269 2020 29 NA NA AMANDA:CRISTOBAL 2020-06-05 09:00:00 TS 18.9050 -90.0807 PROVISIONAL 0 0 P_____________ AL032020 19.0200 -90.0425 TD 30 1000 -1 1007 200 150 12 11
2020150N09269 2020 29 NA NA AMANDA:CRISTOBAL 2020-06-05 12:00:00 TS 19.5333 -89.9667 PROVISIONAL 0 0 O_____________ nhc_working_bt AL032020 19.6000 -89.9000 TD 30 1000 -1 1007 200 150 40 13 12
2020150N09269 2020 29 NA NA AMANDA:CRISTOBAL 2020-06-05 15:00:00 TS 20.1492 -89.7938 PROVISIONAL 0 0 P_____________ AL032020 20.1775 -89.7553 TD 32 1000 -1 1007 200 150 13 11
2020150N09269 2020 29 NA NA AMANDA:CRISTOBAL 2020-06-05 18:00:00 TS 20.8000 -89.7000 PROVISIONAL 0 0 O_____________ nhc_working_bt AL032020 20.8000 -89.7000 TS 35 1000 0 210 210 120 1007 200 150 45 12 270 14 359
2020150N09269 2020 29 NA GM AMANDA:CRISTOBAL 2020-06-05 21:00:00 TS 21.5225 -89.8168 PROVISIONAL 33 33 P_____________ AL032020 21.5226 -89.8268 TS 37 999 0 210 210 120 1007 200 125 12 255 14 349
2020150N09269 2020 29 NA GM AMANDA:CRISTOBAL 2020-06-06 00:00:00 TS 22.2000 -90.0000 PROVISIONAL 112 112 O_____________ nhc_working_bt AL032020 22.2000 -90.0000 TS 40 998 0 210 210 120 1007 200 100 50 12 240 270 13 347
2020150N09269 2020 29 NA GM AMANDA:CRISTOBAL 2020-06-06 03:00:00 TS 22.7408 -90.1109 PROVISIONAL 168 168 P_____________ AL032020 22.7025 -90.0727 TS 40 998 0 210 195 120 1007 200 100 12 240 300 10 351
2020150N09269 2020 29 NA GM AMANDA:CRISTOBAL 2020-06-06 06:00:00 TS 23.1667 -90.1667 PROVISIONAL 225 225 O_____________ nhc_working_bt AL032020 23.1000 -90.1000 TS 40 998 0 210 180 120 1008 200 100 50 12 240 330 60 8 360
2020150N09269 2020 29 NA GM AMANDA:CRISTOBAL 2020-06-06 09:00:00 TS 23.4883 -90.1386 PROVISIONAL 257 257 P_____________ AL032020 23.4500 -90.1001 TS 42 995 0 210 180 120 1008 220 100 12 255 345 90 6 5
2020150N09269 2020 29 NA GM AMANDA:CRISTOBAL 2020-06-06 12:00:00 TS 23.8000 -90.1000 PROVISIONAL 291 291 O_____________ nhc_working_bt AL032020 23.8000 -90.1000 TS 45 992 0 210 180 120 1008 240 100 55 12 270 360 60 120 7 0
2020150N09269 2020 29 NA GM AMANDA:CRISTOBAL 2020-06-06 15:00:00 TS 24.2225 -90.1473 PROVISIONAL 334 334 P_____________ AL032020 24.2275 -90.1573 TS 45 993 0 210 180 130 1008 240 100 12 285 352 75 120 9 355
2020150N09269 2020 29 NA GM AMANDA:CRISTOBAL 2020-06-06 18:00:00 TS 24.7000 -90.2000 PROVISIONAL 391 391 O_____________ nhc_working_bt AL032020 24.7000 -90.2000 TS 45 994 0 210 180 90 140 1008 240 100 55 12 300 345 90 120 10 357
2020150N09269 2020 29 NA GM AMANDA:CRISTOBAL 2020-06-06 21:00:00 TS 25.1825 -90.1984 PROVISIONAL 435 379 P_____________ AL032020 25.1775 -90.1651 TS 45 994 0 210 180 90 140 1008 240 95 12 307 330 105 165 10 2
2020150N09269 2020 29 NA GM AMANDA:CRISTOBAL 2020-06-07 00:00:00 TS 25.7000 -90.1667 PROVISIONAL 379 323 O_____________ nhc_working_bt AL032020 25.7000 -90.1000 TS 45 994 0 210 180 90 140 1008 240 90 55 12 315 315 120 210 11 4
2020150N09269 2020 29 NA GM AMANDA:CRISTOBAL 2020-06-07 03:00:00 TS 26.2392 -90.1266 PROVISIONAL 323 256 P_____________ AL032020 26.2775 -90.0500 TS 45 993 0 195 180 90 140 1008 255 90 12 307 307 135 195 11 5
2020150N09269 2020 29 NA GM AMANDA:CRISTOBAL 2020-06-07 06:00:00 TS 26.8333 -90.0667 PROVISIONAL 256 178 O_____________ nhc_working_bt AL032020 26.9000 -90.0000 TS 45 993 0 180 180 90 140 1009 270 90 55 12 300 300 150 180 13 6
2020150N09269 2020 29 NA GM AMANDA:CRISTOBAL 2020-06-07 09:00:00 TS 27.5517 -89.9786 PROVISIONAL 167 102 P_____________ AL032020 27.5800 -89.9500 TS 45 993 0 180 180 90 140 1009 270 90 12 315 315 165 195 14 6
2020150N09269 2020 29 NA GM AMANDA:CRISTOBAL 2020-06-07 12:00:00 TS 28.2000 -89.9000 PROVISIONAL 102 69 O_____________ nhc_working_bt AL032020 28.2000 -89.9000 TS 45 994 0 180 180 90 140 1009 270 90 55 12 330 330 180 210 10 5
2020150N09269 2020 29 NA GM AMANDA:CRISTOBAL 2020-06-07 15:00:00 TS 28.5658 -89.8756 PROVISIONAL 59 38 P_____________ AL032020 28.6375 -89.8425 TS 45 993 0 180 180 90 140 1009 270 90 12 315 330 165 180 7 4
2020150N09269 2020 29 NA GM AMANDA:CRISTOBAL 2020-06-07 18:00:00 TS 28.8667 -89.8667 PROVISIONAL 29 0 O_____________ nhc_working_bt AL032020 29.0000 -89.8000 TS 45 993 0 180 180 90 140 1009 270 90 55 12 300 330 150 150 8 6
2020150N09269 2020 29 NA GM AMANDA:CRISTOBAL 2020-06-07 21:00:00 TS 29.3382 -89.7716 PROVISIONAL 0 0 P_____________ AL032020 29.4148 -89.7330 TS 45 993 0 170 180 85 100 1006 235 90 12 300 315 135 105 9 3
2020150N09269 2020 29 NA NA AMANDA:CRISTOBAL 2020-06-08 00:00:00 TS 29.8000 -89.8000 PROVISIONAL 0 0 O_____________ nhc_working_bt AL032020 29.8000 -89.8000 TS 45 993 0 160 180 80 60 1004 200 90 55 12 300 300 120 60 8 337
2020150N09269 2020 29 NA GM AMANDA:CRISTOBAL 2020-06-08 03:00:00 TS 30.0651 -90.1208 PROVISIONAL 9 0 P_____________ AL032020 30.0551 -90.1258 TS 40 993 0 180 1004 200 95 12 270 9 311
2020150N09269 2020 29 NA NA AMANDA:CRISTOBAL 2020-06-08 06:00:00 TS 30.4000 -90.6000 PROVISIONAL 0 0 O_____________ nhc_working_bt AL032020 30.4000 -90.6000 TS 35 994 0 180 1004 200 100 45 12 240 13 318
2020150N09269 2020 29 NA NA AMANDA:CRISTOBAL 2020-06-08 09:00:00 TS 31.0429 -91.1310 PROVISIONAL 0 0 P_____________ AL032020 31.0480 -91.1359 TS 32 994 -1 1004 200 135 12 210 16 329
2020150N09269 2020 29 NA NA AMANDA:CRISTOBAL 2020-06-08 12:00:00 TS 31.8000 -91.6000 PROVISIONAL 0 0 O_____________ nhc_working_bt AL032020 31.8000 -91.6000 TD 30 994 -1 1004 200 170 40 12 180 16 337
2020150N09269 2020 29 NA NA AMANDA:CRISTOBAL 2020-06-08 15:00:00 TS 32.5180 -91.8565 PROVISIONAL 0 0 P_____________ AL032020 32.4796 -91.8185 TD 30 994 -1 1004 177 160 12 215 14 347
2020150N09269 2020 29 NA NA AMANDA:CRISTOBAL 2020-06-08 18:00:00 TS 33.1667 -91.9667 PROVISIONAL 0 0 O_____________ nhc_working_bt AL032020 33.1000 -91.9000 TD 30 994 -1 1004 155 150 40 12 250 11 354
2020150N09269 2020 29 NA NA AMANDA:CRISTOBAL 2020-06-08 21:00:00 TS 33.6157 -91.9821 PROVISIONAL 0 0 P_____________ AL032020 33.5774 -91.9436 TD 27 994 -1 1002 132 127 12 250 9 0
2020150N09269 2020 29 NA NA AMANDA:CRISTOBAL 2020-06-09 00:00:00 TS 34.1000 -92.0000 PROVISIONAL 0 0 O_____________ nhc_working_bt AL032020 34.1000 -92.0000 TD 25 994 -1 1000 110 105 35 12 250 12 350
2020150N09269 2020 29 NA NA AMANDA:CRISTOBAL 2020-06-09 03:00:00 TS 34.7653 -92.2251 PROVISIONAL 0 0 P_____________ AL032020 34.7353 -92.2349 TD 25 994 -1 1000 115 92 16 348
2020150N09269 2020 29 NA NA AMANDA:CRISTOBAL 2020-06-09 06:00:00 TS 35.7000 -92.4000 PROVISIONAL 0 0 O_____________ nhc_working_bt AL032020 35.7000 -92.4000 TD 25 995 -1 1000 120 80 35 23 359
2020150N09269 2020 29 NA NA AMANDA:CRISTOBAL 2020-06-09 09:00:00 TS 37.0617 -92.3005 PROVISIONAL 0 0 P_____________ AL032020 37.3301 -92.2638 TD 25 994 -1 998 135 70 28 6
2020150N09269 2020 29 NA NA AMANDA:CRISTOBAL 2020-06-09 12:00:00 TS 38.4333 -92.0667 PROVISIONAL 0 0 O_____________ nhc_working_bt AL032020 38.9000 -92.0000 TD 25 993 -1 996 150 60 35 23 9
2020150N09269 2020 29 NA NA AMANDA:CRISTOBAL 2020-06-09 15:00:00 TS 39.2839 -91.8657 PROVISIONAL 0 0 P_____________ AL032020 39.5521 -91.8262 TD 25 992 -1 996 152 105 17 12
2020150N09269 2020 29 NA NA AMANDA:CRISTOBAL 2020-06-09 18:00:00 TS 40.1000 -91.6000 PROVISIONAL 0 0 O_____________ nhc_working_bt AL032020 40.1000 -91.6000 TD 25 992 -1 996 155 150 35 21 12
2020150N09269 2020 29 NA NA AMANDA:CRISTOBAL 2020-06-09 21:00:00 TS 41.3168 -91.2830 PROVISIONAL 0 0 P_____________ AL032020 41.2819 -91.2886 TD 27 990 -1 995 130 125 26 14
2020150N09269 2020 29 NA NA AMANDA:CRISTOBAL 2020-06-10 00:00:00 ET 42.6000 -90.8000 PROVISIONAL 0 0 O_____________ nhc_working_bt AL032020 42.6000 -90.8000 EX 30 989 -4 994 105 100 40 26 20
2020150N09269 2020 29 NA NA AMANDA:CRISTOBAL 2020-06-10 03:00:00 ET 43.7126 -90.0780 PROVISIONAL 0 0 P_____________ AL032020 43.7241 -90.0759 EX 30 987 -4 995 135 100 24 29
2020150N09269 2020 29 NA NA AMANDA:CRISTOBAL 2020-06-10 06:00:00 ET 44.7000 -89.2000 PROVISIONAL 0 O_____________ nhc_working_bt AL032020 44.7000 -89.2000 EX 30 985 -4 996 165 100 23 32

IBTrACS Databaseについて

本データベースは、米国NOAAが公開する1842年以降の世界の熱帯低気圧のベストトラックデータアーカイブInternational Best Track Archive for Climate Stewardship (IBTrACS)を、ウェブで閲覧しやすい形式に変換したものです。

最終更新日:2021-10-08